Main page
METAR-TAF:

METAR-TAF

Airports :

Leipzig–Altenburg Airport

Altenburg, Germany

latitude: 50-58N, longitude: 012-30E, elevation: 195 m

Current weather observation

The report was made 22 minutes ago, at 19:20 UTC
Wind 9 kt from the South
Temperature 7°C
Pressure 1006 hPa
Visibility 10 km or more

METAR: EDAC 271920Z AUTO 18009KT 9999 // FEW081/// OVC094/// 07/// Q1006

Time: 20:42 (19:42 UTC)

Forecast

The report was made 2 hours and 42 minutes ago, at 17:00 UTC
Forecast valid from 27 at 18 UTC to 28 at 03 UTC
Wind 8 kt from the South
Visibility 10 km or more
Broken clouds at a height of 3500 ft
Becoming
from 27 at 20 UTC to 27 at 22 UTC
Wind 10 kt from the West/Southwest
Temporary
from 27 at 21 UTC to 27 at 23 UTC
Wind 15 kt from the Southwest
Overcast at a height of 1300 ft
rain

TAF: EDAC 271700Z 2718/2803 18008KT 9999 BKN035 BECMG 2720/2722 24010KT TEMPO 2721/2723 23015KT RA OVC013

Weather observations and forecasts of more than 4000 airports (METAR and TAF reports).

The available stations are represented by yellow and red dots on the map.

Hover mouse over dot to see the name of the station.

Then click to see weather observations and forecasts.

To change the map : click on the green buttons with a black cross to zoom in, on the green button with a dash to zoom out, or on the green arrows for adjacent maps.


METAR-TAF: